This is the latest recevied weather packets stored in our database for station/object N3HBJ. If no packets are shown the sender has not sent any weather packets the latest 10 day(s).
| Time | Temp. | Humidity | Pressure | Rain* | Wind** | Luminosity | Snow |
|---|---|---|---|---|---|---|---|
| 1777964502 | 15° C | 67% | 1007.7 hPa | 0 mm | - | 0 W/m² | - |
| 1777964200 | 15° C | 68% | 1007.6 hPa | 0 mm | - | 0 W/m² | - |
| 1777963902 | 14.44° C | 70% | 1007.6 hPa | 0 mm | - | 0 W/m² | - |
| 1777963298 | 13.33° C | 73% | 1007.6 hPa | 0 mm | - | 0 W/m² | - |
| 1777961335 | 12.22° C | 77% | 1007.8 hPa | 0 mm | - | 0 W/m² | - |
| 1777959389 | 13.33° C | 73% | 1008 hPa | 0 mm | - | 0 W/m² | - |
| 1777958786 | 13.89° C | 71% | 1008.1 hPa | 0 mm | - | 0 W/m² | - |
| 1777958487 | 14.44° C | 70% | 1008.2 hPa | 0 mm | - | 0 W/m² | - |
| 1777957587 | 15° C | 67% | 1008.2 hPa | 0 mm | - | 0 W/m² | - |
| 1777956386 | 16.11° C | 65% | 1008.4 hPa | 0 mm | - | 0 W/m² | - |
| 1777955187 | 15.56° C | 65% | 1008.4 hPa | 0 mm | - | 0 W/m² | - |
| 1777954734 | 15° C | 67% | 1008.4 hPa | 0 mm | - | 0 W/m² | - |
| 1777951577 | 14.44° C | 72% | 1008.4 hPa | 0 mm | - | 0 W/m² | - |
| 1777947670 | 15.56° C | 65% | 1008.4 hPa | 0 mm | - | 0 W/m² | - |
| 1777945868 | 17.22° C | 61% | 1008.4 hPa | 0 mm | - | 0 W/m² | - |
| 1777943445 | 18.89° C | 52% | 1008.3 hPa | 0 mm | - | 0 W/m² | - |
| 1777940152 | 19.44° C | 47% | 1007.8 hPa | 0 mm | - | 0 W/m² | - |
| 1777938791 | 20° C | 44% | 1007.7 hPa | 0 mm | - | 12 W/m² | - |
| 1777938046 | 20.56° C | 43% | 1007.6 hPa | 0 mm | - | 16 W/m² | - |
| 1777937752 | 20.56° C | 42% | 1007.5 hPa | 0 mm | - | 19 W/m² | - |
| 1777937143 | 20.56° C | 42% | 1007.5 hPa | 0 mm | - | 23 W/m² | - |
| 1777936841 | 20.56° C | 41% | 1007.4 hPa | 0 mm | - | 28 W/m² | - |
| 1777936539 | 21.11° C | 42% | 1007.3 hPa | 0 mm | - | 30 W/m² | - |
| 1777936235 | 21.11° C | 40% | 1007.2 hPa | 0 mm | - | 51 W/m² | - |
| 1777935636 | 21.67° C | 40% | 1007.2 hPa | 0 mm | - | 118 W/m² | - |
* Rain latest hour (hover to see other rain measurements)
** Current wind speed in m/s (hover to see current wind gust speed)